الصفحة الرئيسية
METAR-TAF:

METAR-TAF

مطار :

San Antonio del Táchira, فنزويلا

دائرة عرض: 07-51N, خط طول: 072-27W, ارتفاع: 377 متر

مراقبة الطقس الحالي

تاريخ ووقت الإصدار 1ساعة و 14 دقيقة قبل الساعة 17:03UTC
ريح 8 عقدة من الشمال
درجة الحرارة 27°درجة مئوية
الرطوبة 62%
ضغط 1013 hPa

METAR: SVSA 041703Z AUTO 35008KT NCD 27/19 Q1013

زمن: 14:17 (18:17 UTC)

توقعات

تاريخ ووقت الإصدار 2ساعات و 17 دقيقة قبل الساعة 16:00UTC
التوقعات صالحة من04 الساعة 18 UTC إلى 05 الساعة 18 UTC
ريح 6 عقدة من الشرق/الجنوب الشرقي
الرؤية 10 كم أو أكثر
غيوم قليلة على ارتفاع 1300 قدم
أصبح
من 04 الساعة 18 UTC إلى 04 الساعة 21 UTC
ريح 8 عقدة من الجنوب الشرقي
الرؤية 10 كم أو أكثر
غيوم مفككة على ارتفاع 1300 قدم

TAF: SVSA 041600Z 0418/0518 11006KT 9999 FEW013 TX31/0419Z TN17/0507Z BECMG 0418/0421 14008KT 9999 BKN013

أرصاد الطقس والتوقعات من أكثر من 4000 مطار (تقارير الطقس للمطار METAR والتنبؤ بالطقس بالمطارTAF).

المحطات المتاحة هي النقط الصفراء والحمراء على الخريطة.

حرك المؤشر فوق النقطة لمعرفة اسم المحطة.

ثم انقر لمعرفة أرصاد وتوقعات الطقس.

لتغيير الخارطة: اضغط على الأزرار الخضراء مع رمز الصليب الأسود للتكبير. على الزر الأخضر مع شرطة للتصغير، أو على الأسهم الخضراء للخرائط المجاورة.


METAR-TAF: